Austin, TX (78746)

6:21 PM CDT on July 07, 2015 (GMT -0500)
Camelot | | Change Station
CLOSE
Current Station
Personal Weather Station
Location: Austin, TX
Elevation: 925 ft
Nearby Weather Stations

Elev 925 ft 30.29 °N, 97.83 °W | Updated 1 second ago

Partly Cloudy
Partly Cloudy
85.8 °F
Feels Like 93 °F
N
0.0
Wind Variable Wind from SSW
Gusts 2.0 mph

Today
High -- | Low -- °F
--% Chance of Precip.
Yesterday
High -- | Low -- °F
Precip. -- in
6:35 AM 8:36 PM
Waning Gibbous, 60% visible
Pressure 29.90 in
Visibility 10.0 miles
Clouds Clear
Heat Index 93 °F
Dew Point 74 °F
Humidity 67%
Rainfall 0.00 in
Snow Depth Not available.
UV 4 out of 12
Pollen 2.30 out of 12
Air Quality Not available.
Flu Activity Not available.
METAR KATT 072251Z AUTO 17007G20KT 140V200 10SM CLR 31/22 A2994 RMK AO2 RAB2159E09 SLP125 P0000 T03060222 $

More Conditions Fewer Conditions

Pressure 29.90 in
Visibility 10.0 miles
Clouds Clear
Heat Index 93 °F
Dew Point 74 °F
Humidity 67%
Rainfall 0.00 in
Snow Depth Not available.
UV 4 out of 12
Pollen 2.30 out of 12
Air Quality Not available.
Flu Activity Not available.
METAR KATT 072251Z AUTO 17007G20KT 140V200 10SM CLR 31/22 A2994 RMK AO2 RAB2159E09 SLP125 P0000 T03060222 $

More Conditions Fewer Conditions

Nowcast | as of 5:31 PM CDT on July 7, 2015

Through 7 PM CDT...a band of showers along the I-35 corridor into The Hill Country will move north at 15 to 20 mph. Rainfall will average between 1/10 and 1/2 inch.

×

10-Day Weather Forecast

×

Almanac

Astronomy

Jul. 07, 2015 Rise Set
Actual Time
Civil Twilight
Nautical Twilight
Astronomical Twilight
Moon
Length of Visible Light
Length of Day
Tomorrow will be .
, % of the Moon is Illuminated

Today's Extremes

State Highs State Lows

Community

WunderPhotos

Upload Photos

1,835,951 photos uploaded!

WunderBlogs® & News

Nearby

Air Quality

  Air Quality AQ Index Pollutant
Not available.

Snow Depth

Station Depth Elevation

Earthquake Activity

City Distance Mag. Time & Date
Minimum magnitude displayed is 2.5.

Coastal Water Temperatures

Place Temperature

Stations

Nearby Weather Stations

Station Location Temp. Windchill Dew Point Humidity Wind Precip. Elev Updated Type